Time;durP1;ratioP1;P1;durP2;ratioP2;P2;SDS_P1;SDS_P2;PMS_P1;PMS_P2;Temp;Humidity;BMP_temperature;BMP_pressure;BME280_temperature;BME280_humidity;BME280_pressure;Samples;Min_cycle;Max_cycle;Signal;HPM_P1;HPM_P2
2021/03/22 02:22:20;;;;;;;11.10;3.40;;;5.90;90.80;;;;;;5057356;28;20011;-83
2021/03/22 02:47:07;;;;;;;15.30;3.30;;;5.80;91.00;;;;;;5071837;28;20110;-83
2021/03/22 02:56:28;;;;;;;13.23;4.03;;;5.80;91.20;;;;;;5056390;28;20115;-84
2021/03/22 02:59:00;;;;;;;10.40;3.40;;;5.80;91.30;;;;;;5038321;28;20123;-83
2021/03/22 03:01:43;;;;;;;18.52;6.15;;;5.80;91.40;;;;;;5023464;28;20036;-83
2021/03/22 03:04:13;;;;;;;12.35;4.15;;;5.80;91.50;;;;;;5019299;28;20021;-84
2021/03/22 03:13:25;;;;;;;12.00;3.92;;;5.90;91.60;;;;;;5036661;28;20076;-83
2021/03/22 03:23:23;;;;;;;13.65;3.72;;;5.90;91.70;;;;;;5035804;28;20034;-83
2021/03/22 03:32:22;;;;;;;15.45;4.70;;;5.90;91.80;;;;;;5034913;28;19905;-83
2021/03/22 04:47:11;;;;;;;16.48;5.60;;;6.10;92.60;;;;;;5054880;28;20036;-83
2021/03/22 05:17:38;;;;;;;19.52;4.88;;;6.20;92.90;;;;;;5054005;28;20052;-83
2021/03/22 05:27:02;;;;;;;8.95;3.63;;;6.20;93.10;;;;;;5053912;28;20060;-83
2021/03/22 06:28:42;;;;;;;7.22;2.28;;;6.30;93.60;;;;;;5091561;28;20078;-83
2021/03/22 06:50:28;;;;;;;8.13;2.97;;;6.40;94.10;;;;;;5074271;28;20135;-83
2021/03/22 06:52:54;;;;;;;6.75;2.10;;;6.40;94.20;;;;;;5058494;28;20313;-83
2021/03/22 07:45:58;;;;;;;7.65;2.00;;;6.70;94.60;;;;;;5076170;28;20036;-96
2021/03/22 07:48:35;;;;;;;5.60;1.75;;;6.70;94.60;;;;;;5058182;28;20033;-83
2021/03/22 07:51:28;;;;;;;5.80;1.67;;;6.70;94.60;;;;;;5037753;28;20021;-83
2021/03/22 08:04:42;;;;;;;3.08;1.23;;;6.80;94.70;;;;;;5055381;28;20413;-81
2021/03/22 08:10:22;;;;;;;3.97;1.23;;;6.80;94.80;;;;;;5055614;28;20098;-82
2021/03/22 08:16:37;;;;;;;4.03;1.25;;;6.90;94.90;;;;;;5075256;28;20114;-81
2021/03/22 08:29:52;;;;;;;3.65;1.05;;;7.10;95.10;;;;;;5013219;28;20068;-81
2021/03/22 08:42:46;;;;;;;5.13;1.10;;;7.20;95.10;;;;;;5012266;28;20022;-81
2021/03/22 08:45:23;;;;;;;3.35;1.10;;;7.30;95.10;;;;;;4996239;28;20092;-81
2021/03/22 08:48:00;;;;;;;4.05;1.23;;;7.30;95.10;;;;;;5012436;28;20042;-81
2021/03/22 08:50:30;;;;;;;3.92;1.40;;;7.40;95.20;;;;;;5012465;28;20113;-85
2021/03/22 09:30:41;;;;;;;4.20;1.73;;;8.30;95.20;;;;;;5054311;28;20045;-82
2021/03/22 09:33:07;;;;;;;6.43;2.00;;;8.40;95.10;;;;;;5036451;28;20070;-83
2021/03/22 09:36:11;;;;;;;2.80;1.50;;;8.50;95.00;;;;;;5036475;28;20124;-86
2021/03/22 09:45:33;;;;;;;5.30;1.40;;;8.60;94.60;;;;;;5057384;28;20036;-81
2021/03/22 10:02:39;;;;;;;5.75;1.75;;;8.60;94.40;;;;;;4984499;28;20078;-83
2021/03/22 10:08:12;;;;;;;3.42;1.60;;;8.60;94.40;;;;;;4988145;28;20025;-87
2021/03/22 10:13:59;;;;;;;3.53;1.50;;;8.70;94.50;;;;;;5012485;28;20110;-90
2021/03/22 10:16:34;;;;;;;3.53;1.25;;;8.80;94.60;;;;;;4992516;28;20049;-83
2021/03/22 10:19:43;;;;;;;3.45;1.40;;;8.90;94.50;;;;;;4978534;28;20027;-84
2021/03/22 10:35:57;;;;;;;2.75;1.20;;;9.20;93.80;;;;;;4995880;28;20030;-84
2021/03/22 10:45:27;;;;;;;3.00;1.00;;;9.50;93.70;;;;;;5016612;28;20405;-83
2021/03/22 10:58:41;;;;;;;1.88;0.60;;;9.60;93.00;;;;;;5043535;28;20184;-84
2021/03/22 11:05:26;;;;;;;3.88;0.93;;;9.60;92.70;;;;;;5035019;28;20088;-84
2021/03/22 11:07:58;;;;;;;2.13;0.85;;;9.60;92.70;;;;;;5034472;28;20038;-84
2021/03/22 11:10:24;;;;;;;2.10;0.90;;;9.60;92.80;;;;;;5018375;28;20021;-82
2021/03/22 11:12:52;;;;;;;2.53;0.93;;;9.70;92.50;;;;;;5037030;28;20045;-83
2021/03/22 11:15:26;;;;;;;2.03;0.47;;;9.70;92.50;;;;;;5059003;28;20024;-83
2021/03/22 11:17:53;;;;;;;1.50;0.70;;;9.80;92.50;;;;;;5058372;28;20025;-84
2021/03/22 11:20:20;;;;;;;2.80;0.70;;;9.80;92.40;;;;;;5058506;28;20125;-82
2021/03/22 11:22:48;;;;;;;1.67;0.40;;;9.90;92.40;;;;;;5054678;28;20029;-82
2021/03/22 11:25:29;;;;;;;2.85;0.70;;;9.90;92.40;;;;;;5038423;28;20032;-81
2021/03/22 11:28:19;;;;;;;2.85;0.73;;;10.00;92.30;;;;;;5038364;28;20024;-84
2021/03/22 11:30:54;;;;;;;6.73;1.60;;;10.10;92.10;;;;;;5041187;28;20119;-82
2021/03/22 11:56:36;;;;;;;2.75;1.00;;;10.20;90.70;;;;;;5029085;28;19912;-84
2021/03/22 11:59:34;;;;;;;2.78;0.90;;;10.20;90.60;;;;;;5016613;28;20046;-82
2021/03/22 12:08:53;;;;;;;1.65;0.70;;;10.20;90.60;;;;;;4974366;28;20054;-80
2021/03/22 12:11:30;;;;;;;2.80;0.85;;;10.20;90.50;;;;;;4973739;28;20042;-81
2021/03/22 12:13:58;;;;;;;3.05;0.68;;;10.30;90.50;;;;;;4973714;28;20050;-82
2021/03/22 12:16:32;;;;;;;2.47;0.77;;;10.30;90.50;;;;;;4973376;28;20034;-82
2021/03/22 12:19:05;;;;;;;2.03;0.75;;;10.30;90.50;;;;;;4972697;28;20031;-84
2021/03/22 12:21:31;;;;;;;2.45;0.95;;;10.30;90.50;;;;;;5006336;28;20049;-82
2021/03/22 12:23:58;;;;;;;1.42;0.75;;;10.30;90.30;;;;;;4980509;28;20030;-82
2021/03/22 12:26:24;;;;;;;1.90;0.98;;;10.40;90.30;;;;;;4985981;28;20037;-82
2021/03/22 12:28:56;;;;;;;1.08;0.70;;;10.40;90.10;;;;;;5014171;28;20534;-83
2021/03/22 12:31:44;;;;;;;4.20;1.20;;;10.50;90.00;;;;;;4995549;28;20037;-82
2021/03/22 12:34:15;;;;;;;3.38;1.10;;;10.50;88.90;;;;;;5006465;28;20097;-82
2021/03/22 12:36:42;;;;;;;2.85;0.93;;;10.50;87.40;;;;;;5009423;28;20074;-82
2021/03/22 12:39:26;;;;;;;2.53;0.85;;;10.50;87.80;;;;;;5001473;28;20026;-82
2021/03/22 12:41:57;;;;;;;2.58;0.93;;;10.50;88.00;;;;;;5013945;28;20076;-82
2021/03/22 12:44:23;;;;;;;2.40;0.73;;;10.50;88.30;;;;;;4996457;28;20057;-82
2021/03/22 12:46:49;;;;;;;1.85;0.85;;;10.60;88.60;;;;;;4979989;28;20062;-82
2021/03/22 12:49:18;;;;;;;3.15;0.80;;;10.60;88.40;;;;;;4985999;28;20101;-82
2021/03/22 12:52:23;;;;;;;1.75;0.90;;;10.60;88.60;;;;;;4996654;28;20045;-82
2021/03/22 12:54:49;;;;;;;2.33;0.77;;;10.70;88.50;;;;;;5033366;28;20025;-82
2021/03/22 12:57:20;;;;;;;4.80;1.10;;;10.70;87.50;;;;;;5033535;28;20112;-82
2021/03/22 13:00:54;;;;;;;1.38;0.50;;;10.80;86.90;;;;;;5051937;28;20044;-82
2021/03/22 13:03:23;;;;;;;1.40;0.47;;;10.80;86.80;;;;;;5017554;28;20037;-82
2021/03/22 13:05:55;;;;;;;2.17;0.70;;;10.90;85.30;;;;;;5032343;28;20122;-82
2021/03/22 13:08:27;;;;;;;1.95;0.75;;;10.90;84.10;;;;;;5039253;28;20040;-83
2021/03/22 13:10:55;;;;;;;2.63;0.57;;;10.90;84.20;;;;;;5035971;28;20021;-82
2021/03/22 13:13:20;;;;;;;1.90;0.85;;;10.90;81.80;;;;;;5036248;28;20024;-82
2021/03/22 13:15:50;;;;;;;0.73;0.60;;;10.90;80.90;;;;;;5004431;28;20025;-82
2021/03/22 13:18:20;;;;;;;1.63;0.68;;;11.00;80.10;;;;;;5036159;28;20033;-82
2021/03/22 13:20:49;;;;;;;3.77;0.90;;;10.90;80.80;;;;;;5054202;28;20021;-82
2021/03/22 13:23:17;;;;;;;1.63;0.75;;;10.90;81.00;;;;;;5036339;28;20348;-83
2021/03/22 13:25:43;;;;;;;2.90;0.80;;;10.90;80.60;;;;;;5035779;28;20087;-82
2021/03/22 13:28:13;;;;;;;4.97;1.80;;;10.90;80.90;;;;;;5036116;28;20060;-83
2021/03/22 13:30:39;;;;;;;2.00;0.87;;;11.00;79.20;;;;;;5028884;28;20024;-82
2021/03/22 13:33:05;;;;;;;3.20;0.75;;;11.00;79.40;;;;;;5016340;28;20021;-82
2021/03/22 13:35:33;;;;;;;2.28;0.70;;;11.00;79.80;;;;;;5016033;28;20024;-84
2021/03/22 13:37:59;;;;;;;0.98;0.52;;;11.10;79.60;;;;;;5016237;28;20021;-82
2021/03/22 13:40:24;;;;;;;1.48;0.70;;;11.10;79.90;;;;;;4999994;28;20393;-82
2021/03/22 13:42:50;;;;;;;6.20;1.17;;;11.10;80.30;;;;;;4999920;28;20033;-82
2021/03/22 13:45:26;;;;;;;2.22;0.85;;;11.10;80.10;;;;;;4991133;28;20025;-82
2021/03/22 13:47:57;;;;;;;1.13;0.70;;;11.10;79.80;;;;;;5036175;28;20028;-82
2021/03/22 13:50:24;;;;;;;1.42;0.75;;;11.20;80.30;;;;;;5035856;28;20053;-82
2021/03/22 13:52:50;;;;;;;1.60;0.80;;;11.20;80.60;;;;;;5059384;28;20052;-82
2021/03/22 13:55:18;;;;;;;3.03;1.00;;;11.20;81.00;;;;;;5043995;28;20080;-84
2021/03/22 13:57:45;;;;;;;1.48;0.80;;;11.20;80.70;;;;;;5059607;28;20032;-82
2021/03/22 14:00:14;;;;;;;2.65;1.00;;;11.20;80.40;;;;;;5076693;28;20076;-82
2021/03/22 14:02:40;;;;;;;1.10;0.85;;;11.20;79.40;;;;;;5077566;28;20059;-83
2021/03/22 14:05:09;;;;;;;2.05;0.90;;;11.20;79.90;;;;;;5064261;28;20040;-83
2021/03/22 14:07:43;;;;;;;3.10;0.90;;;11.20;79.30;;;;;;5077843;28;20085;-89
2021/03/22 14:10:09;;;;;;;3.67;1.10;;;11.20;79.70;;;;;;5055714;28;20174;-83
2021/03/22 14:12:34;;;;;;;3.42;1.00;;;11.20;79.20;;;;;;5048690;28;20057;-84
2021/03/22 14:15:00;;;;;;;1.55;0.90;;;11.20;77.50;;;;;;5023330;28;20036;-82
2021/03/22 14:27:30;;;;;;;2.67;0.70;;;11.20;78.10;;;;;;5031618;28;20526;-81
2021/03/22 14:29:56;;;;;;;3.00;1.48;;;11.20;78.10;;;;;;5059728;28;20044;-82
2021/03/22 14:32:24;;;;;;;0.82;0.52;;;11.20;78.50;;;;;;5059644;28;20025;-81
2021/03/22 14:38:16;;;;;;;2.20;1.17;;;11.30;78.90;;;;;;5076962;28;20387;-82
2021/03/22 14:40:42;;;;;;;1.02;0.80;;;11.30;78.10;;;;;;5058634;28;20024;-82
2021/03/22 14:43:08;;;;;;;2.25;1.00;;;11.30;78.50;;;;;;5077532;28;20032;-82
2021/03/22 14:45:34;;;;;;;1.83;0.70;;;11.30;78.20;;;;;;5042551;28;20039;-82
2021/03/22 14:48:00;;;;;;;1.95;0.70;;;11.30;78.30;;;;;;5077849;28;20021;-83
2021/03/22 14:50:27;;;;;;;2.03;0.70;;;11.40;77.90;;;;;;5043018;28;20154;-82
2021/03/22 14:52:53;;;;;;;1.48;0.60;;;11.40;77.90;;;;;;5059902;28;20486;-83
2021/03/22 14:55:22;;;;;;;0.98;0.68;;;11.40;77.80;;;;;;5063131;28;20090;-82
2021/03/22 14:57:48;;;;;;;0.80;0.60;;;11.40;78.00;;;;;;5096019;28;20050;-81
2021/03/22 15:03:37;;;;;;;0.65;0.50;;;11.50;77.00;;;;;;5092582;28;20104;-83
2021/03/22 15:06:03;;;;;;;3.13;0.80;;;11.60;76.50;;;;;;5100099;28;20020;-82
2021/03/22 15:08:28;;;;;;;1.08;0.60;;;11.60;73.70;;;;;;5065721;28;20024;-82
2021/03/22 15:10:54;;;;;;;2.17;0.75;;;11.60;74.20;;;;;;5059400;28;20028;-82
2021/03/22 15:13:20;;;;;;;2.97;0.60;;;11.60;74.70;;;;;;5070855;28;20056;-83
2021/03/22 15:15:49;;;;;;;1.83;0.50;;;11.60;75.10;;;;;;5051570;28;20102;-82
2021/03/22 15:18:20;;;;;;;1.15;0.57;;;11.50;75.30;;;;;;5077660;28;20389;-82
2021/03/22 15:20:47;;;;;;;3.25;0.70;;;11.60;75.60;;;;;;5062695;28;20629;-82
2021/03/22 15:23:17;;;;;;;2.38;0.77;;;11.50;72.30;;;;;;5047363;28;20060;-82
2021/03/22 15:25:45;;;;;;;2.17;0.60;;;11.50;73.20;;;;;;5064146;28;20024;-83
2021/03/22 15:28:14;;;;;;;1.63;0.60;;;11.50;73.70;;;;;;5053257;28;20033;-83
2021/03/22 15:30:41;;;;;;;2.08;0.90;;;11.50;72.60;;;;;;5061340;28;20047;-82
2021/03/22 15:33:22;;;;;;;1.70;0.60;;;11.50;70.10;;;;;;5025634;28;20021;-82
2021/03/22 15:35:54;;;;;;;2.30;1.20;;;11.40;70.10;;;;;;5045886;28;20021;-82
2021/03/22 15:38:20;;;;;;;2.17;0.60;;;11.40;71.50;;;;;;5058479;28;20364;-81
2021/03/22 15:40:45;;;;;;;0.68;0.55;;;11.30;72.10;;;;;;5057833;28;20123;-82
2021/03/22 15:43:11;;;;;;;1.38;0.60;;;11.40;72.80;;;;;;5024819;28;20033;-83
2021/03/22 15:49:20;;;;;;;1.20;0.52;;;11.40;72.40;;;;;;5075148;28;20040;-84
2021/03/22 15:51:46;;;;;;;1.08;0.73;;;11.40;71.70;;;;;;5050507;28;20086;-82
2021/03/22 15:54:11;;;;;;;1.65;0.68;;;11.30;70.60;;;;;;5042132;28;20032;-83
2021/03/22 16:00:47;;;;;;;2.67;0.70;;;11.30;71.90;;;;;;5076247;28;20017;-83
2021/03/22 16:03:32;;;;;;;3.65;0.95;;;11.30;72.90;;;;;;5072730;28;20064;-82
2021/03/22 16:05:58;;;;;;;0.80;0.75;;;11.30;73.50;;;;;;5021355;28;20036;-82
2021/03/22 16:08:25;;;;;;;1.45;0.70;;;11.30;74.00;;;;;;5021047;28;20041;-82
2021/03/22 16:10:52;;;;;;;1.85;0.60;;;11.30;74.10;;;;;;5038139;28;20029;-82
2021/03/22 16:13:20;;;;;;;1.75;0.70;;;11.30;74.30;;;;;;5056439;28;20033;-82
2021/03/22 16:19:28;;;;;;;1.23;0.55;;;11.30;74.60;;;;;;5055301;28;20116;-82
2021/03/22 16:25:21;;;;;;;2.03;0.70;;;11.30;74.80;;;;;;5055046;28;20028;-82
2021/03/22 16:31:48;;;;;;;2.65;0.60;;;11.30;75.30;;;;;;5055071;28;19920;-82
2021/03/22 16:34:14;;;;;;;0.98;0.60;;;11.30;75.60;;;;;;5038014;28;20028;-83
2021/03/22 16:36:39;;;;;;;1.00;0.60;;;11.30;75.70;;;;;;5037190;28;20480;-82
2021/03/22 16:39:17;;;;;;;2.40;0.60;;;11.30;75.60;;;;;;5020832;28;20051;-82
2021/03/22 16:41:43;;;;;;;2.10;0.60;;;11.30;75.60;;;;;;5020510;28;20469;-82
2021/03/22 16:44:09;;;;;;;2.65;0.70;;;11.30;75.70;;;;;;5037109;28;20025;-82
2021/03/22 16:46:35;;;;;;;0.85;0.50;;;11.30;75.30;;;;;;5036784;28;20031;-82
2021/03/22 16:49:01;;;;;;;1.55;0.60;;;11.30;75.40;;;;;;5038467;28;20060;-82
2021/03/22 16:54:53;;;;;;;1.00;0.40;;;11.30;75.40;;;;;;5062471;28;20034;-81
2021/03/22 16:57:19;;;;;;;1.67;0.40;;;11.30;75.70;;;;;;5042392;28;20033;-82
2021/03/22 16:59:46;;;;;;;1.15;0.60;;;11.30;75.60;;;;;;5026242;28;20566;-83
2021/03/22 17:02:13;;;;;;;1.48;0.57;;;11.30;75.60;;;;;;5044431;28;20111;-82
2021/03/22 17:05:54;;;;;;;1.02;0.50;;;11.30;75.80;;;;;;5044694;28;20079;-83
2021/03/22 17:08:24;;;;;;;3.97;1.20;;;11.30;75.70;;;;;;5053760;28;20446;-83
2021/03/22 17:10:50;;;;;;;1.13;0.55;;;11.30;75.50;;;;;;5053499;28;20408;-83
2021/03/22 17:16:51;;;;;;;3.33;0.65;;;11.20;75.60;;;;;;5055206;28;20021;-81
2021/03/22 17:19:17;;;;;;;1.55;0.70;;;11.20;75.80;;;;;;5056110;28;20023;-81
2021/03/22 17:21:42;;;;;;;1.20;0.70;;;11.20;75.90;;;;;;5040216;28;20123;-81
2021/03/22 17:24:11;;;;;;;2.67;0.80;;;11.20;76.10;;;;;;5023913;28;20407;-81
2021/03/22 17:26:36;;;;;;;3.05;0.90;;;11.20;76.10;;;;;;5054054;28;20032;-81
2021/03/22 17:29:03;;;;;;;1.50;0.90;;;11.10;76.20;;;;;;5036620;28;20487;-79
2021/03/22 17:31:28;;;;;;;2.47;1.00;;;11.20;76.40;;;;;;5054892;28;20037;-82
2021/03/22 17:33:55;;;;;;;2.10;0.80;;;11.10;76.30;;;;;;5049670;28;20035;-82
2021/03/22 17:36:21;;;;;;;1.60;0.73;;;11.10;76.40;;;;;;5041533;28;20032;-82
2021/03/22 17:38:50;;;;;;;3.17;1.00;;;11.10;76.40;;;;;;5059526;28;20013;-81
2021/03/22 17:41:16;;;;;;;1.45;0.90;;;11.10;76.40;;;;;;5077849;28;20017;-84
2021/03/22 17:43:43;;;;;;;1.15;0.80;;;11.10;76.40;;;;;;5043280;28;20100;-81
2021/03/22 17:46:10;;;;;;;2.63;1.00;;;11.10;76.40;;;;;;5042045;28;20033;-85
2021/03/22 17:48:36;;;;;;;1.35;0.70;;;11.10;76.60;;;;;;5060265;28;20036;-81
2021/03/22 17:51:02;;;;;;;1.83;0.70;;;11.00;76.70;;;;;;5034485;28;20036;-81
2021/03/22 17:53:31;;;;;;;2.67;0.95;;;11.00;76.70;;;;;;5021151;28;20125;-83
2021/03/22 17:55:59;;;;;;;2.30;0.77;;;11.00;76.80;;;;;;5053269;28;20450;-82
2021/03/22 17:58:25;;;;;;;1.63;1.23;;;11.00;76.80;;;;;;5036539;28;20060;-82
2021/03/22 18:00:51;;;;;;;2.55;1.20;;;11.00;76.50;;;;;;5036693;28;20033;-83
2021/03/22 18:03:16;;;;;;;3.92;1.67;;;11.00;76.70;;;;;;5052989;28;20017;-83
2021/03/22 18:05:42;;;;;;;2.83;1.67;;;10.90;76.30;;;;;;5036703;28;20115;-83
2021/03/22 18:11:33;;;;;;;4.28;2.45;;;10.90;76.00;;;;;;5053326;28;20139;-83
2021/03/22 18:17:27;;;;;;;4.25;2.08;;;10.80;76.60;;;;;;5056838;28;20032;-83
2021/03/22 18:24:13;;;;;;;4.45;2.28;;;10.70;77.20;;;;;;5063284;28;20109;-82
2021/03/22 18:27:18;;;;;;;4.80;2.40;;;10.70;77.40;;;;;;5046690;28;20021;-84
2021/03/22 18:29:44;;;;;;;4.43;2.17;;;10.70;77.60;;;;;;5056684;28;20033;-83
2021/03/22 18:32:10;;;;;;;3.10;2.17;;;10.70;77.90;;;;;;5043371;28;20017;-81
2021/03/22 18:35:16;;;;;;;4.90;2.58;;;10.70;78.00;;;;;;5052360;28;20043;-82
2021/03/22 18:48:25;;;;;;;5.32;2.90;;;10.60;78.40;;;;;;5057107;28;20392;-82
2021/03/22 18:54:33;;;;;;;4.65;2.60;;;10.60;78.00;;;;;;5057990;28;20024;-83
2021/03/22 19:01:11;;;;;;;5.53;3.42;;;10.50;78.50;;;;;;5056331;28;20108;-83
2021/03/22 19:07:07;;;;;;;4.95;2.90;;;10.50;78.80;;;;;;5058068;28;20142;-83
2021/03/22 19:28:18;;;;;;;3.63;2.67;;;10.40;79.60;;;;;;5054687;28;20025;-83
2021/03/22 19:34:09;;;;;;;5.45;2.95;;;10.30;79.70;;;;;;5056812;28;20028;-86
2021/03/22 19:36:34;;;;;;;4.97;3.03;;;10.40;79.90;;;;;;5055958;28;20116;-83
2021/03/22 19:39:01;;;;;;;4.20;2.95;;;10.40;80.00;;;;;;5054787;28;20129;-82
2021/03/22 19:41:26;;;;;;;5.20;3.13;;;10.30;79.90;;;;;;5038164;28;20461;-83
2021/03/22 19:43:54;;;;;;;4.95;3.08;;;10.30;79.90;;;;;;5054760;28;20029;-83
2021/03/22 19:46:22;;;;;;;5.15;3.05;;;10.30;80.00;;;;;;5054721;28;20036;-84
2021/03/22 19:48:47;;;;;;;4.43;2.97;;;10.30;79.90;;;;;;5055115;28;20036;-83
2021/03/22 19:51:17;;;;;;;4.85;3.00;;;10.30;80.10;;;;;;5021801;28;20033;-83
2021/03/22 19:57:23;;;;;;;4.93;2.85;;;10.30;80.20;;;;;;5054516;28;20033;-83
2021/03/22 20:07:07;;;;;;;5.38;3.10;;;10.30;80.20;;;;;;5055485;28;20017;-83
2021/03/22 20:23:42;;;;;;;6.93;3.63;;;10.10;80.60;;;;;;5012376;28;20474;-83
2021/03/22 20:33:17;;;;;;;5.60;4.18;;;10.00;80.60;;;;;;5014254;28;20038;-83
2021/03/22 20:39:10;;;;;;;6.95;4.70;;;9.90;81.00;;;;;;5013445;28;20560;-84
2021/03/22 20:45:50;;;;;;;5.93;4.10;;;9.90;81.20;;;;;;5033149;28;20024;-84
2021/03/22 20:58:30;;;;;;;6.00;3.95;;;9.80;81.40;;;;;;5057610;28;20170;-85
2021/03/22 21:01:05;;;;;;;6.00;4.50;;;9.70;81.70;;;;;;5044162;28;20052;-83
2021/03/22 21:03:30;;;;;;;6.57;4.57;;;9.70;81.80;;;;;;5039423;28;20029;-83
2021/03/22 21:06:31;;;;;;;6.30;4.13;;;9.70;81.80;;;;;;5024442;28;20029;-84
2021/03/22 21:12:39;;;;;;;8.40;5.50;;;9.60;81.90;;;;;;5061616;28;20118;-83
2021/03/22 21:15:39;;;;;;;7.32;5.15;;;9.60;81.90;;;;;;5055781;28;20064;-83
2021/03/22 21:18:23;;;;;;;7.05;4.90;;;9.50;82.10;;;;;;5019950;28;20088;-85
2021/03/22 21:20:54;;;;;;;7.35;5.40;;;9.50;82.30;;;;;;5046913;28;20028;-84
2021/03/22 21:23:42;;;;;;;6.63;5.13;;;9.50;82.40;;;;;;5057352;28;20028;-84
2021/03/22 21:33:06;;;;;;;7.45;4.97;;;9.30;82.50;;;;;;5077451;28;20033;-85
2021/03/22 21:38:58;;;;;;;7.03;5.15;;;9.30;83.00;;;;;;5056331;28;20028;-84
2021/03/22 21:44:48;;;;;;;10.57;5.60;;;9.20;83.10;;;;;;5054326;28;20112;-83
2021/03/22 21:47:14;;;;;;;8.75;5.97;;;9.10;83.00;;;;;;5020852;28;20087;-82
2021/03/22 21:49:41;;;;;;;7.35;5.07;;;9.10;83.20;;;;;;5033879;28;20017;-83
2021/03/22 21:52:09;;;;;;;8.07;5.10;;;9.10;83.30;;;;;;5004471;28;20087;-83
2021/03/22 21:54:35;;;;;;;8.07;5.22;;;9.10;83.50;;;;;;5020008;28;20078;-83
2021/03/22 21:57:01;;;;;;;7.70;5.70;;;9.10;83.70;;;;;;5003401;28;20452;-84
2021/03/22 21:59:26;;;;;;;8.15;6.13;;;9.10;83.60;;;;;;5019544;28;20116;-83
2021/03/22 22:05:29;;;;;;;8.02;5.43;;;9.10;83.60;;;;;;5054653;28;20071;-83
2021/03/22 22:11:17;;;;;;;7.93;5.05;;;9.00;83.70;;;;;;5053873;28;20045;-83
2021/03/22 22:17:10;;;;;;;6.80;4.85;;;9.00;83.90;;;;;;5053584;28;20032;-83
2021/03/22 22:19:36;;;;;;;6.80;4.88;;;9.00;84.10;;;;;;5012886;28;20049;-83
2021/03/22 22:22:02;;;;;;;7.38;5.15;;;9.00;84.20;;;;;;5038699;28;20037;-82
2021/03/22 22:24:31;;;;;;;7.45;5.30;;;9.00;84.30;;;;;;5039906;28;20060;-88
2021/03/22 22:26:56;;;;;;;7.00;4.80;;;9.00;84.40;;;;;;5056415;28;20071;-83
2021/03/22 22:29:22;;;;;;;7.35;5.10;;;8.90;84.30;;;;;;5039987;28;20061;-83
2021/03/22 22:32:20;;;;;;;7.82;5.50;;;9.00;84.40;;;;;;5023231;28;20029;-83
2021/03/22 22:34:46;;;;;;;8.18;5.30;;;8.90;84.40;;;;;;5039791;28;20029;-82
2021/03/22 22:37:12;;;;;;;10.32;5.97;;;8.90;84.50;;;;;;5023104;28;20036;-84
2021/03/22 22:39:38;;;;;;;7.88;5.60;;;8.90;84.90;;;;;;5056150;28;20033;-83
2021/03/22 22:45:49;;;;;;;7.65;5.47;;;8.90;84.90;;;;;;5057197;28;20028;-83
2021/03/22 22:55:35;;;;;;;13.18;7.88;;;8.80;84.50;;;;;;5056522;28;20067;-83
2021/03/22 23:01:55;;;;;;;7.88;5.78;;;8.70;85.10;;;;;;5056984;28;20082;-83
2021/03/22 23:15:30;;;;;;;12.63;6.22;;;8.60;85.50;;;;;;5055646;28;20021;-83
2021/03/22 23:52:50;;;;;;;10.48;7.05;;;8.40;86.20;;;;;;5055661;28;20008;-83
